createdAt,value
2023-03-18T00:01:24.135Z,21.63
2023-03-18T00:03:52.444Z,22.15
2023-03-18T00:06:22.074Z,20.83
2023-03-18T00:08:50.841Z,23.73
2023-03-18T00:11:21.412Z,24.90
2023-03-18T00:13:49.793Z,24.60
2023-03-18T00:16:18.301Z,20.83
2023-03-18T00:18:45.919Z,20.60
2023-03-18T00:21:13.923Z,22.85
2023-03-18T00:23:42.228Z,32.65
2023-03-18T00:26:10.145Z,24.95
2023-03-18T00:28:41.958Z,24.92
2023-03-18T00:31:13.936Z,21.73
2023-03-18T00:33:46.256Z,21.90
2023-03-18T00:36:16.744Z,22.17
2023-03-18T00:38:47.072Z,18.42
2023-03-18T00:41:16.229Z,22.00
2023-03-18T00:43:47.136Z,19.95
2023-03-18T00:46:24.629Z,20.63
2023-03-18T00:48:55.045Z,26.92
2023-03-18T00:51:26.070Z,23.30
2023-03-18T00:53:57.841Z,19.63
2023-03-18T00:56:29.446Z,21.25
2023-03-18T00:58:58.493Z,22.40
2023-03-18T01:01:29.684Z,21.42
2023-03-18T01:04:01.549Z,23.63
2023-03-18T01:06:34.437Z,26.60
2023-03-18T01:09:05.163Z,25.60
2023-03-18T01:11:34.247Z,23.63
2023-03-18T01:14:02.440Z,26.88
2023-03-18T01:16:30.580Z,29.77
2023-03-18T01:18:58.683Z,21.10
2023-03-18T01:21:26.850Z,27.70
2023-03-18T01:24:00.581Z,22.13
2023-03-18T01:26:29.492Z,29.33
2023-03-18T01:29:00.583Z,25.42
2023-03-18T01:31:30.224Z,26.92
2023-03-18T01:34:03.462Z,24.33
2023-03-18T01:36:40.920Z,25.73
2023-03-18T01:39:10.660Z,22.42
2023-03-18T01:41:40.347Z,24.90
2023-03-18T01:44:19.258Z,24.75
2023-03-18T01:46:50.307Z,24.77
2023-03-18T01:49:34.050Z,25.88
2023-03-18T01:52:22.624Z,28.73
2023-03-18T01:54:59.102Z,25.35
2023-03-18T01:57:30.264Z,21.90
2023-03-18T01:59:59.829Z,23.20
2023-03-18T02:02:29.296Z,22.92
2023-03-18T02:05:01.940Z,24.88
2023-03-18T02:07:34.275Z,24.98
2023-03-18T02:10:11.106Z,20.00
2023-03-18T02:12:42.430Z,23.33
2023-03-18T02:15:14.837Z,27.92
2023-03-18T02:17:48.799Z,19.42
2023-03-18T02:20:58.668Z,19.55
2023-03-18T02:23:39.470Z,24.27
2023-03-18T02:26:23.670Z,22.35
2023-03-18T02:28:56.336Z,21.65
2023-03-18T02:31:25.329Z,22.75
2023-03-18T02:33:54.505Z,24.67
2023-03-18T02:36:28.506Z,25.35
2023-03-18T02:38:58.061Z,25.88
2023-03-18T02:41:33.829Z,25.60
2023-03-18T02:44:02.742Z,22.45
2023-03-18T02:46:49.220Z,25.42
2023-03-18T02:49:19.357Z,23.58
2023-03-18T02:51:47.060Z,20.73
2023-03-18T02:54:20.678Z,23.85
2023-03-18T02:56:48.756Z,24.65
2023-03-18T02:59:17.557Z,19.13
2023-03-18T03:01:47.803Z,21.85
2023-03-18T03:04:17.616Z,23.85
2023-03-18T03:06:46.427Z,23.73
2023-03-18T03:09:18.042Z,20.05
2023-03-18T03:11:48.243Z,19.48
2023-03-18T03:14:22.429Z,19.40
2023-03-18T03:16:53.772Z,19.60
2023-03-18T03:19:21.782Z,23.83
2023-03-18T03:21:49.872Z,18.13
2023-03-18T03:24:18.546Z,18.80
2023-03-18T03:26:48.122Z,17.88
2023-03-18T03:29:16.183Z,19.33
2023-03-18T03:31:43.756Z,22.98
2023-03-18T03:34:11.962Z,24.05
2023-03-18T03:36:39.975Z,17.83
2023-03-18T03:39:08.568Z,20.40
2023-03-18T03:41:36.282Z,23.30
2023-03-18T03:44:04.877Z,20.38
2023-03-18T03:46:32.960Z,18.73
2023-03-18T03:49:01.846Z,23.98
2023-03-18T03:51:29.527Z,22.20
2023-03-18T03:53:57.585Z,22.75
2023-03-18T03:56:25.385Z,20.65
2023-03-18T03:58:53.968Z,25.75
2023-03-18T04:01:23.508Z,19.08
2023-03-18T04:03:51.761Z,20.88
2023-03-18T04:06:19.870Z,21.23
2023-03-18T04:08:56.675Z,21.23
2023-03-18T04:11:24.351Z,24.38
2023-03-18T04:13:52.611Z,26.23
2023-03-18T04:16:22.115Z,27.08
2023-03-18T04:18:50.586Z,20.85
2023-03-18T04:21:19.046Z,21.55
2023-03-18T04:23:51.190Z,24.38
2023-03-18T04:26:19.220Z,21.15
2023-03-18T04:28:47.497Z,21.52
2023-03-18T04:31:17.037Z,26.02
2023-03-18T04:33:45.678Z,20.08
2023-03-18T04:36:13.726Z,23.42
2023-03-18T04:38:41.663Z,29.30
2023-03-18T04:41:09.817Z,23.83
2023-03-18T04:43:39.182Z,20.52
2023-03-18T04:46:08.825Z,22.42
2023-03-18T04:48:37.551Z,28.20
2023-03-18T04:51:09.361Z,20.08
2023-03-18T04:53:37.994Z,24.13
2023-03-18T04:56:07.269Z,24.77
2023-03-18T04:58:43.986Z,20.58
2023-03-18T05:03:45.504Z,27.05
2023-03-18T05:06:23.038Z,23.92
2023-03-18T05:09:06.139Z,25.60
2023-03-18T05:11:36.106Z,22.42
2023-03-18T05:14:15.663Z,25.55
2023-03-18T05:16:47.268Z,18.63
2023-03-18T05:19:15.721Z,26.90
2023-03-18T05:21:51.715Z,21.50
2023-03-18T05:24:20.545Z,23.02
2023-03-18T05:26:48.353Z,27.40
2023-03-18T05:29:18.134Z,23.38
2023-03-18T05:31:58.775Z,23.92
2023-03-18T05:34:28.312Z,22.85
2023-03-18T05:36:57.795Z,22.00
2023-03-18T05:39:26.744Z,22.50
2023-03-18T05:41:54.568Z,23.90
2023-03-18T05:44:29.537Z,24.52
2023-03-18T05:47:02.746Z,28.13
2023-03-18T05:49:46.537Z,20.70
2023-03-18T05:52:20.434Z,21.80
2023-03-18T05:54:50.761Z,23.92
2023-03-18T05:57:24.990Z,29.38
2023-03-18T06:02:27.882Z,30.58
2023-03-18T06:04:56.223Z,30.00
2023-03-18T06:07:24.614Z,23.70
2023-03-18T06:09:53.590Z,30.08
2023-03-18T06:12:24.124Z,31.83
2023-03-18T06:14:52.391Z,24.95
2023-03-18T06:17:21.361Z,22.70
2023-03-18T06:19:49.949Z,27.58
2023-03-18T06:22:17.683Z,28.50
2023-03-18T06:24:47.880Z,26.35
2023-03-18T06:27:17.957Z,21.85
2023-03-18T06:29:48.992Z,24.50
2023-03-18T06:32:19.391Z,23.50
2023-03-18T06:34:48.056Z,22.15
2023-03-18T06:37:15.759Z,31.48
2023-03-18T06:39:44.886Z,23.85
2023-03-18T06:42:14.194Z,22.58
2023-03-18T06:45:08.473Z,28.20
2023-03-18T06:47:50.922Z,22.75
2023-03-18T06:50:19.330Z,24.85
2023-03-18T06:52:48.309Z,24.50
2023-03-18T06:55:19.080Z,21.67
2023-03-18T06:57:47.857Z,27.83
2023-03-18T07:00:20.055Z,25.98
2023-03-18T07:02:49.821Z,29.48
2023-03-18T07:05:20.876Z,25.42
2023-03-18T07:07:48.681Z,28.92
2023-03-18T07:10:27.327Z,27.52
2023-03-18T07:15:28.857Z,35.38
2023-03-18T07:18:00.643Z,26.75
2023-03-18T07:20:29.848Z,21.23
2023-03-18T07:22:58.007Z,27.33
2023-03-18T07:25:25.704Z,25.55
2023-03-18T07:27:53.498Z,23.88
2023-03-18T07:30:22.060Z,25.70
2023-03-18T07:32:50.057Z,24.40
2023-03-18T07:35:18.697Z,28.40
2023-03-18T07:37:46.315Z,20.67
2023-03-18T07:40:14.791Z,25.75
2023-03-18T07:42:43.092Z,23.95
2023-03-18T07:45:11.408Z,24.30
2023-03-18T07:47:40.069Z,32.05
2023-03-18T07:50:08.205Z,26.45
2023-03-18T07:52:37.532Z,27.92
2023-03-18T07:55:05.564Z,22.27
2023-03-18T07:57:33.593Z,26.40
2023-03-18T08:00:01.749Z,25.25
2023-03-18T08:02:42.334Z,23.85
2023-03-18T08:05:10.732Z,23.90
2023-03-18T08:07:38.752Z,26.38
2023-03-18T08:10:09.025Z,21.77
2023-03-18T08:12:51.654Z,21.08
2023-03-18T08:15:22.475Z,27.92
2023-03-18T08:17:52.615Z,29.67
2023-03-18T08:20:21.507Z,25.95
2023-03-18T08:22:50.174Z,27.25
2023-03-18T08:25:18.880Z,24.75
2023-03-18T08:27:46.424Z,22.08
2023-03-18T08:30:15.117Z,28.02
2023-03-18T08:32:43.606Z,24.05
2023-03-18T08:35:12.864Z,24.30
2023-03-18T08:37:40.633Z,23.27
2023-03-18T08:40:10.014Z,18.27
2023-03-18T08:42:37.984Z,22.75
2023-03-18T08:45:10.366Z,26.23
2023-03-18T08:47:38.967Z,28.30
2023-03-18T08:50:07.650Z,23.30
2023-03-18T08:52:38.176Z,25.73
2023-03-18T08:55:12.842Z,22.30
2023-03-18T08:57:40.912Z,24.17
2023-03-18T09:00:10.118Z,24.08
2023-03-18T09:02:39.131Z,21.25
2023-03-18T09:05:07.443Z,24.08
2023-03-18T09:07:35.075Z,24.00
2023-03-18T09:10:04.528Z,28.88
2023-03-18T09:12:32.706Z,25.83
2023-03-18T09:15:00.772Z,28.00
2023-03-18T09:17:45.209Z,22.40
2023-03-18T09:20:18.091Z,23.05
2023-03-18T09:22:47.415Z,20.90
2023-03-18T09:25:16.899Z,23.55
2023-03-18T09:27:45.862Z,25.98
2023-03-18T09:30:14.272Z,23.20
2023-03-18T09:32:42.948Z,19.25
2023-03-18T09:35:13.122Z,23.45
2023-03-18T09:37:41.433Z,22.02
2023-03-18T09:40:17.119Z,20.50
2023-03-18T09:43:05.836Z,17.80
2023-03-18T09:45:41.277Z,19.50
2023-03-18T09:48:15.233Z,16.52
2023-03-18T09:50:58.867Z,19.92
2023-03-18T09:54:14.336Z,20.50
2023-03-18T09:56:43.987Z,17.15
2023-03-18T09:59:34.673Z,17.02
2023-03-18T10:02:04.956Z,18.25
2023-03-18T10:04:46.663Z,18.15
2023-03-18T10:07:20.128Z,16.45
2023-03-18T10:12:37.912Z,17.65
2023-03-18T10:15:21.749Z,18.20
2023-03-18T10:18:04.162Z,18.55
2023-03-18T10:20:34.990Z,18.77
2023-03-18T10:23:31.982Z,23.17
2023-03-18T10:26:06.402Z,22.35
2023-03-18T10:28:40.317Z,19.63
2023-03-18T10:31:22.823Z,16.70
2023-03-18T10:34:06.743Z,23.77
2023-03-18T10:37:19.267Z,18.48
2023-03-18T10:39:50.272Z,19.63
2023-03-18T10:42:32.507Z,15.90
2023-03-18T10:45:17.394Z,19.08
2023-03-18T10:47:52.342Z,22.92
2023-03-18T10:50:29.971Z,19.65
2023-03-18T10:53:07.430Z,20.27
2023-03-18T10:55:43.055Z,21.58
2023-03-18T10:58:16.898Z,19.55
2023-03-18T11:00:45.222Z,18.75
2023-03-18T11:03:21.866Z,17.27
2023-03-18T11:05:53.440Z,17.38
2023-03-18T11:08:39.730Z,18.27
2023-03-18T11:11:14.327Z,19.95
2023-03-18T11:13:50.781Z,16.38
2023-03-18T11:16:38.405Z,25.63
2023-03-18T11:19:09.453Z,18.40
2023-03-18T11:21:39.148Z,17.42
2023-03-18T11:24:36.068Z,18.48
2023-03-18T11:27:04.468Z,16.85
2023-03-18T11:29:34.992Z,20.38
2023-03-18T11:32:03.588Z,19.27
2023-03-18T11:34:35.039Z,22.88
2023-03-18T11:37:04.941Z,24.90
2023-03-18T11:39:37.758Z,20.98
2023-03-18T11:42:22.659Z,22.88
2023-03-18T11:44:55.414Z,22.08
2023-03-18T11:47:28.205Z,18.60
2023-03-18T11:49:57.564Z,19.55
2023-03-18T11:52:39.468Z,20.75
2023-03-18T11:55:34.144Z,22.10
2023-03-18T11:58:18.685Z,20.85
2023-03-18T12:01:01.625Z,19.30
2023-03-18T12:03:48.420Z,16.75
2023-03-18T12:06:30.873Z,18.98
2023-03-18T12:09:37.039Z,19.42
2023-03-18T12:12:19.740Z,19.10
2023-03-18T12:14:58.418Z,21.45
2023-03-18T12:17:50.346Z,23.52
2023-03-18T12:20:50.738Z,20.55
2023-03-18T12:23:27.528Z,21.15
2023-03-18T12:26:04.567Z,24.15
2023-03-18T12:28:52.021Z,23.98
2023-03-18T12:31:25.509Z,24.08
2023-03-18T12:36:32.387Z,21.77
2023-03-18T12:39:19.180Z,25.95
2023-03-18T12:42:27.156Z,22.27
2023-03-18T12:45:02.302Z,25.00
2023-03-18T12:47:37.250Z,25.17
2023-03-18T12:50:19.692Z,23.45
2023-03-18T12:52:53.806Z,22.50
2023-03-18T12:55:39.740Z,26.52
2023-03-18T12:58:15.359Z,25.88
2023-03-18T13:00:52.454Z,24.50
2023-03-18T13:03:38.707Z,24.05
2023-03-18T13:06:20.383Z,23.48
2023-03-18T13:08:51.302Z,24.65
2023-03-18T13:11:40.695Z,22.17
2023-03-18T13:14:31.662Z,23.27
2023-03-18T13:17:00.971Z,23.00
2023-03-18T13:19:31.139Z,24.45
2023-03-18T13:22:20.788Z,26.58
2023-03-18T13:24:54.804Z,24.63
2023-03-18T13:27:38.022Z,26.58
2023-03-18T13:30:18.509Z,29.10
2023-03-18T13:33:15.733Z,26.23
2023-03-18T13:36:12.729Z,27.33
2023-03-18T13:39:00.026Z,28.55
2023-03-18T13:41:59.405Z,24.30
2023-03-18T13:45:09.098Z,23.75
2023-03-18T13:47:39.393Z,24.48
2023-03-18T13:50:19.100Z,23.65
2023-03-18T13:52:49.507Z,25.58
2023-03-18T13:55:34.821Z,26.08
2023-03-18T13:58:06.369Z,26.05
2023-03-18T14:00:38.604Z,24.98
2023-03-18T14:03:23.126Z,24.63
2023-03-18T14:06:13.380Z,22.83
2023-03-18T14:08:44.057Z,24.33
2023-03-18T14:11:16.725Z,25.35
2023-03-18T14:13:48.467Z,22.00
2023-03-18T14:16:20.547Z,27.35
2023-03-18T14:19:19.439Z,26.92
2023-03-18T14:21:53.245Z,24.00
2023-03-18T14:24:26.250Z,24.95
2023-03-18T14:27:06.803Z,26.90
2023-03-18T14:29:43.348Z,29.00
2023-03-18T14:32:23.387Z,24.67
2023-03-18T14:34:59.015Z,25.40
2023-03-18T14:37:30.604Z,27.75
2023-03-18T14:40:18.698Z,25.77
2023-03-18T14:43:00.056Z,26.02
2023-03-18T14:45:33.656Z,28.30
2023-03-18T14:48:30.047Z,25.90
2023-03-18T14:51:01.449Z,27.42
2023-03-18T14:53:41.841Z,28.95
2023-03-18T14:56:29.381Z,26.40
2023-03-18T14:58:57.742Z,27.77
2023-03-18T15:01:37.238Z,29.48
2023-03-18T15:04:07.538Z,31.15
2023-03-18T15:06:35.484Z,28.90
2023-03-18T15:09:08.568Z,27.42
2023-03-18T15:11:43.536Z,30.90
2023-03-18T15:14:32.685Z,28.98
2023-03-18T15:17:04.387Z,28.10
2023-03-18T15:19:32.786Z,34.03
2023-03-18T15:22:06.502Z,29.17
2023-03-18T15:24:34.421Z,28.50
2023-03-18T15:27:13.509Z,28.38
2023-03-18T15:29:54.554Z,28.80
2023-03-18T15:32:27.363Z,28.30
2023-03-18T15:34:59.427Z,26.73
2023-03-18T15:37:33.846Z,29.92
2023-03-18T15:40:31.101Z,24.25
2023-03-18T15:43:08.584Z,25.30
2023-03-18T15:45:52.987Z,29.10
2023-03-18T15:48:32.546Z,28.42
2023-03-18T15:51:02.815Z,26.30
2023-03-18T15:53:47.876Z,28.73
2023-03-18T15:56:36.684Z,25.15
2023-03-18T15:59:19.045Z,25.95
2023-03-18T16:01:50.014Z,30.90
2023-03-18T16:04:18.893Z,27.27
2023-03-18T16:06:46.809Z,31.70
2023-03-18T16:09:19.760Z,33.53
2023-03-18T16:11:52.178Z,35.08
2023-03-18T16:14:22.776Z,33.88
2023-03-18T16:16:50.535Z,32.97
2023-03-18T16:19:31.069Z,31.88
2023-03-18T16:22:00.441Z,33.20
2023-03-18T16:24:28.479Z,32.97
2023-03-18T16:26:59.461Z,35.10
2023-03-18T16:29:31.895Z,38.47
2023-03-18T16:32:04.575Z,35.35
2023-03-18T16:34:32.360Z,36.00
2023-03-18T16:37:00.258Z,37.22
2023-03-18T16:39:35.498Z,39.20
2023-03-18T16:42:05.177Z,38.83
2023-03-18T16:44:35.022Z,36.63
2023-03-18T16:47:02.672Z,37.33
2023-03-18T16:49:33.240Z,36.05
2023-03-18T16:52:04.446Z,39.30
2023-03-18T16:54:34.090Z,41.38
2023-03-18T16:57:04.506Z,40.40
2023-03-18T16:59:35.720Z,35.90
2023-03-18T17:02:04.264Z,34.95
2023-03-18T17:04:35.160Z,39.22
2023-03-18T17:07:05.175Z,36.42
2023-03-18T17:09:33.164Z,39.42
2023-03-18T17:12:06.192Z,42.75
2023-03-18T17:14:38.697Z,46.53
2023-03-18T17:17:25.301Z,39.35
2023-03-18T17:19:52.944Z,37.22
2023-03-18T17:22:27.027Z,40.63
2023-03-18T17:24:54.894Z,46.03
2023-03-18T17:27:30.162Z,43.05
2023-03-18T17:29:58.378Z,45.83
2023-03-18T17:32:26.129Z,45.25
2023-03-18T17:34:54.374Z,43.08
2023-03-18T17:37:23.709Z,46.90
2023-03-18T17:39:51.749Z,46.28
2023-03-18T17:42:32.039Z,45.30
2023-03-18T17:45:24.881Z,48.58
2023-03-18T17:47:54.643Z,42.35
2023-03-18T17:50:22.278Z,45.10
2023-03-18T17:52:53.153Z,46.35
2023-03-18T17:55:23.838Z,46.78
2023-03-18T17:57:51.970Z,43.80
2023-03-18T18:00:26.492Z,44.63
2023-03-18T18:02:55.043Z,46.42
2023-03-18T18:05:23.886Z,48.85
2023-03-18T18:07:53.153Z,44.08
2023-03-18T18:10:21.761Z,46.45
2023-03-18T18:12:50.042Z,46.42
2023-03-18T18:15:22.584Z,45.08
2023-03-18T18:17:50.536Z,45.05
2023-03-18T18:20:19.966Z,44.30
2023-03-18T18:22:54.702Z,54.20
2023-03-18T18:25:29.768Z,53.95
2023-03-18T18:27:58.132Z,50.65
2023-03-18T18:30:27.341Z,53.25
2023-03-18T18:32:55.123Z,50.28
2023-03-18T18:35:24.598Z,59.65
2023-03-18T18:37:52.327Z,38.90
2023-03-18T18:40:20.571Z,33.47
2023-03-18T18:42:48.796Z,33.08
2023-03-18T18:45:21.008Z,31.52
2023-03-18T18:47:48.604Z,22.02
2023-03-18T18:50:19.864Z,27.38
2023-03-18T18:52:47.736Z,21.58
2023-03-18T18:55:16.827Z,20.42
2023-03-18T18:57:45.860Z,18.10
2023-03-18T19:00:22.632Z,22.25
2023-03-18T19:02:53.451Z,19.35
2023-03-18T19:05:22.309Z,19.90
2023-03-18T19:07:50.505Z,20.10
2023-03-18T19:10:19.070Z,19.80
2023-03-18T19:12:47.351Z,20.00
2023-03-18T19:15:15.789Z,17.52
2023-03-18T19:17:43.604Z,13.43
2023-03-18T19:20:26.864Z,12.55
2023-03-18T19:22:54.498Z,14.87
2023-03-18T19:25:25.912Z,12.25
2023-03-18T19:27:54.912Z,19.52
2023-03-18T19:30:25.012Z,14.07
2023-03-18T19:32:52.841Z,16.40
2023-03-18T19:35:21.674Z,16.48
2023-03-18T19:37:50.241Z,14.02
2023-03-18T19:40:26.694Z,17.50
2023-03-18T19:42:55.621Z,14.88
2023-03-18T19:45:23.705Z,16.95
2023-03-18T19:47:51.910Z,16.25
2023-03-18T19:50:21.568Z,16.90
2023-03-18T19:52:49.946Z,14.90
2023-03-18T19:55:17.773Z,16.38
2023-03-18T19:57:48.764Z,21.58
2023-03-18T20:00:26.033Z,15.13
2023-03-18T20:02:55.684Z,17.08
2023-03-18T20:05:25.986Z,17.77
2023-03-18T20:07:54.279Z,14.20
2023-03-18T20:10:21.856Z,16.27
2023-03-18T20:12:51.203Z,19.23
2023-03-18T20:15:22.829Z,13.73
2023-03-18T20:17:51.933Z,15.23
2023-03-18T20:20:23.609Z,15.20
2023-03-18T20:22:54.847Z,14.15
2023-03-18T20:25:30.819Z,16.60
2023-03-18T20:28:00.809Z,13.48
2023-03-18T20:30:35.402Z,15.23
2023-03-18T20:33:04.595Z,14.18
2023-03-18T20:35:35.295Z,15.63
2023-03-18T20:38:32.753Z,13.02
2023-03-18T20:41:01.738Z,19.35
2023-03-18T20:43:29.955Z,19.45
2023-03-18T20:46:00.978Z,21.48
2023-03-18T20:48:29.132Z,22.00
2023-03-18T20:50:57.512Z,21.13
2023-03-18T20:53:29.083Z,14.38
2023-03-18T20:55:58.424Z,17.52
2023-03-18T20:58:28.105Z,14.68
2023-03-18T21:00:56.843Z,21.42
2023-03-18T21:03:25.015Z,13.27
2023-03-18T21:05:57.895Z,20.92
2023-03-18T21:08:27.137Z,17.10
2023-03-18T21:10:55.988Z,13.45
2023-03-18T21:13:28.954Z,15.85
2023-03-18T21:15:58.723Z,15.00
2023-03-18T21:18:27.758Z,17.08
2023-03-18T21:20:56.683Z,18.55
2023-03-18T21:23:27.707Z,12.57
2023-03-18T21:25:56.936Z,15.90
2023-03-18T21:28:25.725Z,12.95
2023-03-18T21:30:57.879Z,16.27
2023-03-18T21:33:28.455Z,15.77
2023-03-18T21:35:59.665Z,23.17
2023-03-18T21:38:29.954Z,21.42
2023-03-18T21:40:59.613Z,20.23
2023-03-18T21:43:33.394Z,19.58
2023-03-18T21:46:02.444Z,19.70
2023-03-18T21:48:30.435Z,23.77
2023-03-18T21:50:59.853Z,24.77
2023-03-18T21:53:28.958Z,28.10
2023-03-18T21:55:57.078Z,27.38
2023-03-18T21:58:27.245Z,28.17
2023-03-18T22:00:58.646Z,31.00
2023-03-18T22:03:29.734Z,26.70
2023-03-18T22:05:57.711Z,27.48
2023-03-18T22:08:26.016Z,28.67
2023-03-18T22:10:53.942Z,35.33
2023-03-18T22:13:25.195Z,33.28
2023-03-18T22:15:54.596Z,31.58
2023-03-18T22:18:23.250Z,32.20
2023-03-18T22:20:51.885Z,27.27
2023-03-18T22:23:26.597Z,31.88
2023-03-18T22:25:56.570Z,36.50
2023-03-18T22:28:26.057Z,33.75
2023-03-18T22:30:56.894Z,33.22
2023-03-18T22:33:28.683Z,35.80
2023-03-18T22:35:57.467Z,38.45
2023-03-18T22:38:26.999Z,41.17
2023-03-18T22:40:57.411Z,38.97
2023-03-18T22:43:31.820Z,34.00
2023-03-18T22:46:01.673Z,36.53
2023-03-18T22:48:29.924Z,32.40
2023-03-18T22:50:59.526Z,28.42
2023-03-18T22:53:34.149Z,31.05
2023-03-18T22:56:08.070Z,35.00
2023-03-18T22:58:36.570Z,29.50
2023-03-18T23:01:05.136Z,32.97
2023-03-18T23:03:35.994Z,30.02
2023-03-18T23:06:04.240Z,32.95
2023-03-18T23:08:32.343Z,35.47
2023-03-18T23:11:01.902Z,32.65
2023-03-18T23:13:38.922Z,34.28
2023-03-18T23:16:11.796Z,30.52
2023-03-18T23:18:40.058Z,29.10
2023-03-18T23:21:10.434Z,33.97
2023-03-18T23:23:38.472Z,36.13
2023-03-18T23:26:06.972Z,36.10
2023-03-18T23:28:44.118Z,31.50
2023-03-18T23:31:14.559Z,31.92
2023-03-18T23:33:42.661Z,30.52
2023-03-18T23:36:11.980Z,25.83
2023-03-18T23:38:40.702Z,22.90
2023-03-18T23:41:08.404Z,24.38
2023-03-18T23:43:36.957Z,31.95
2023-03-18T23:46:04.837Z,24.13
2023-03-18T23:48:33.428Z,26.05
2023-03-18T23:51:01.341Z,27.85
2023-03-18T23:53:29.390Z,26.10
2023-03-18T23:55:57.674Z,24.45
2023-03-18T23:58:25.268Z,23.02
